Terminal Aerodrome Forecast
Issued by NWS Sterling, VA

Current Version | Previous Version | Text Only | Print | Product List | Glossary On
Versions: 1 2 3 4 5 6 7 8 9 10 11 12 13 14 15 16 17 18 19 20 21 22 23 24 25
000
FTUS41 KLWX 291722
TAFBWI
TAF
KBWI 291722Z 2918/3024 01005KT P6SM BKN045
     FM292300 08004KT P6SM BKN040
     FM300800 00000KT P6SM BKN060
     FM301500 13005KT P6SM SHRA BKN040
     FM301800 14006KT P6SM SHRA VCTS BKN040CB=

USA.gov is the U.S. government's official web portal to all federal, state and local government web resources and services.